San Antonio Del Tachira, Venezuela

11:46 PM VET on September 04, 2015 (GMT -0430)
Camilo Daza International | | Change Station
CLOSE
Current Station
Airport
Location: Cucuta,
Elevation: 1040 ft
Nearby Weather Stations

Elev 1040 ft 7.93 °N, 72.51 °W | Updated 16 minutes ago

Scattered Clouds
Scattered Clouds
84 °F
Feels Like 87 °F
N
8
Wind Variable Wind from South

Today
High -- | Low -- °F
--% Chance of Precip.
Yesterday
High -- | Low -- °F
Precip. -- in
6:11 AM 6:26 PM
Waning Gibbous, 53% visible
Pressure 29.95 in
Visibility 6.2 miles
Clouds Few 2300 ft
Scattered Clouds 9000 ft
Heat Index 87 °F
Dew Point 68 °F
Humidity 58%
Rainfall 0.00 in
Snow Depth Not available.
UV 0 out of 12
Pollen Not available.
Air Quality Not available.
Flu Activity Not available.
METAR SKCC 050400Z 19007KT 9999 FEW023 SCT090 29/20 A2995
Pressure 29.95 in
Visibility 6.2 miles
Clouds Few 2300 ft
Scattered Clouds 9000 ft
Heat Index 87 °F
Dew Point 68 °F
Humidity 58%
Rainfall 0.00 in
Snow Depth Not available.
UV 0 out of 12
Pollen Not available.
Air Quality Not available.
Flu Activity Not available.
METAR SKCC 050400Z 19007KT 9999 FEW023 SCT090 29/20 A2995

10-Day Weather Forecast

×

Almanac

Astronomy

Sep. 04, 2015 Rise Set
Actual Time
Civil Twilight
Nautical Twilight
Astronomical Twilight
Moon
Length of Visible Light
Length of Day
Tomorrow will be .
, % of the Moon is Illuminated

Today's Extremes

Country Highs Country Lows

Community

WunderPhotos

Upload Photos

1,852,419 photos uploaded!

WunderBlogs® & News

Nearby

Air Quality

  Air Quality AQ Index Pollutant
Not available.

Snow Depth

Station Depth Elevation

Earthquake Activity

City Distance Mag. Time & Date
Minimum magnitude displayed is 2.5.

Coastal Water Temperatures

Place Temperature

Stations

Nearby Weather Stations

Station Location Temp. Windchill Dew Point Humidity Wind Precip. Elev Updated Type